sensor_id;sensor_type;location;lat;lon;timestamp;temperature;humidity
9723;DHT22;4900;49.306;8.500;2023-01-23T00:00:07;2.53;84.17
9723;DHT22;4900;49.306;8.500;2023-01-23T00:03:14;2.55;84.11
9723;DHT22;4900;49.306;8.500;2023-01-23T00:06:18;2.53;84.19
9723;DHT22;4900;49.306;8.500;2023-01-23T00:09:21;2.52;84.26
9723;DHT22;4900;49.306;8.500;2023-01-23T00:12:24;2.51;84.19
9723;DHT22;4900;49.306;8.500;2023-01-23T00:15:27;2.52;84.25
9723;DHT22;4900;49.306;8.500;2023-01-23T00:18:30;2.49;84.31
9723;DHT22;4900;49.306;8.500;2023-01-23T00:21:33;2.52;84.17
9723;DHT22;4900;49.306;8.500;2023-01-23T00:24:37;2.52;84.06
9723;DHT22;4900;49.306;8.500;2023-01-23T00:27:40;2.52;83.98
9723;DHT22;4900;49.306;8.500;2023-01-23T00:30:43;2.53;83.99
9723;DHT22;4900;49.306;8.500;2023-01-23T00:33:46;2.51;84.00
9723;DHT22;4900;49.306;8.500;2023-01-23T00:36:49;2.49;84.10
9723;DHT22;4900;49.306;8.500;2023-01-23T00:39:55;2.49;84.08
9723;DHT22;4900;49.306;8.500;2023-01-23T00:42:58;2.48;84.08
9723;DHT22;4900;49.306;8.500;2023-01-23T00:46:02;2.45;84.14
9723;DHT22;4900;49.306;8.500;2023-01-23T00:49:06;2.49;84.22
9723;DHT22;4900;49.306;8.500;2023-01-23T00:52:09;2.48;84.20
9723;DHT22;4900;49.306;8.500;2023-01-23T00:55:12;2.49;84.13
9723;DHT22;4900;49.306;8.500;2023-01-23T00:58:15;2.48;84.15
9723;DHT22;4900;49.306;8.500;2023-01-23T01:01:19;2.46;84.16
9723;DHT22;4900;49.306;8.500;2023-01-23T01:04:24;2.49;84.13
9723;DHT22;4900;49.306;8.500;2023-01-23T01:07:28;2.46;84.13
9723;DHT22;4900;49.306;8.500;2023-01-23T01:10:31;2.48;84.11
9723;DHT22;4900;49.306;8.500;2023-01-23T01:13:35;2.46;84.19
9723;DHT22;4900;49.306;8.500;2023-01-23T01:16:39;2.45;84.15
9723;DHT22;4900;49.306;8.500;2023-01-23T01:19:47;2.49;84.15
9723;DHT22;4900;49.306;8.500;2023-01-23T01:22:51;2.48;84.11
9723;DHT22;4900;49.306;8.500;2023-01-23T01:25:58;2.46;84.17
9723;DHT22;4900;49.306;8.500;2023-01-23T01:29:01;2.46;84.14
9723;DHT22;4900;49.306;8.500;2023-01-23T01:32:04;2.46;84.16
9723;DHT22;4900;49.306;8.500;2023-01-23T01:35:09;2.48;84.17
9723;DHT22;4900;49.306;8.500;2023-01-23T01:38:13;2.48;84.08
9723;DHT22;4900;49.306;8.500;2023-01-23T01:41:16;2.49;84.10
9723;DHT22;4900;49.306;8.500;2023-01-23T01:44:22;2.46;84.08
9723;DHT22;4900;49.306;8.500;2023-01-23T01:47:26;2.49;84.01
9723;DHT22;4900;49.306;8.500;2023-01-23T01:50:30;2.48;83.91
9723;DHT22;4900;49.306;8.500;2023-01-23T01:53:34;2.48;83.88
9723;DHT22;4900;49.306;8.500;2023-01-23T01:57:13;2.49;83.89
9723;DHT22;4900;49.306;8.500;2023-01-23T02:00:18;2.44;83.76
9723;DHT22;4900;49.306;8.500;2023-01-23T02:03:23;2.44;83.73
9723;DHT22;4900;49.306;8.500;2023-01-23T02:06:26;2.42;83.64
9723;DHT22;4900;49.306;8.500;2023-01-23T02:09:30;2.40;83.56
9723;DHT22;4900;49.306;8.500;2023-01-23T02:12:35;2.38;83.48
9723;DHT22;4900;49.306;8.500;2023-01-23T02:15:40;2.37;83.44
9723;DHT22;4900;49.306;8.500;2023-01-23T02:18:47;2.38;83.45
9723;DHT22;4900;49.306;8.500;2023-01-23T02:21:53;2.38;83.40
9723;DHT22;4900;49.306;8.500;2023-01-23T02:25:20;2.38;83.44
9723;DHT22;4900;49.306;8.500;2023-01-23T02:28:45;2.35;83.42
9723;DHT22;4900;49.306;8.500;2023-01-23T02:31:49;2.38;83.36
9723;DHT22;4900;49.306;8.500;2023-01-23T02:34:57;2.37;83.41
9723;DHT22;4900;49.306;8.500;2023-01-23T02:38:04;2.38;83.46
9723;DHT22;4900;49.306;8.500;2023-01-23T02:41:09;2.38;83.41
9723;DHT22;4900;49.306;8.500;2023-01-23T02:47:31;2.40;83.47
9723;DHT22;4900;49.306;8.500;2023-01-23T02:50:35;2.37;83.50
9723;DHT22;4900;49.306;8.500;2023-01-23T02:53:38;2.41;83.50
9723;DHT22;4900;49.306;8.500;2023-01-23T02:56:44;2.40;83.54
9723;DHT22;4900;49.306;8.500;2023-01-23T02:59:47;2.40;83.55
9723;DHT22;4900;49.306;8.500;2023-01-23T03:03:09;2.40;83.53
9723;DHT22;4900;49.306;8.500;2023-01-23T03:06:13;2.40;83.58
9723;DHT22;4900;49.306;8.500;2023-01-23T03:09:17;2.38;83.54
9723;DHT22;4900;49.306;8.500;2023-01-23T03:12:20;2.38;83.63
9723;DHT22;4900;49.306;8.500;2023-01-23T03:15:23;2.38;83.63
9723;DHT22;4900;49.306;8.500;2023-01-23T03:18:26;2.40;83.67
9723;DHT22;4900;49.306;8.500;2023-01-23T03:21:34;2.38;83.69
9723;DHT22;4900;49.306;8.500;2023-01-23T03:24:38;2.41;83.62
9723;DHT22;4900;49.306;8.500;2023-01-23T03:27:41;2.40;83.59
9723;DHT22;4900;49.306;8.500;2023-01-23T03:30:44;2.42;83.62
9723;DHT22;4900;49.306;8.500;2023-01-23T03:33:47;2.42;83.59
9723;DHT22;4900;49.306;8.500;2023-01-23T03:36:50;2.42;83.61
9723;DHT22;4900;49.306;8.500;2023-01-23T03:39:57;2.41;83.62
9723;DHT22;4900;49.306;8.500;2023-01-23T03:43:19;2.42;83.57
9723;DHT22;4900;49.306;8.500;2023-01-23T03:46:23;2.42;83.55
9723;DHT22;4900;49.306;8.500;2023-01-23T03:49:26;2.41;83.60
9723;DHT22;4900;49.306;8.500;2023-01-23T03:52:29;2.41;83.63
9723;DHT22;4900;49.306;8.500;2023-01-23T03:55:32;2.41;83.65
9723;DHT22;4900;49.306;8.500;2023-01-23T03:58:36;2.42;83.60
9723;DHT22;4900;49.306;8.500;2023-01-23T04:01:39;2.42;83.61
9723;DHT22;4900;49.306;8.500;2023-01-23T04:04:42;2.45;83.56
9723;DHT22;4900;49.306;8.500;2023-01-23T04:07:45;2.42;83.56
9723;DHT22;4900;49.306;8.500;2023-01-23T04:10:47;2.41;83.56
9723;DHT22;4900;49.306;8.500;2023-01-23T04:13:52;2.44;83.57
9723;DHT22;4900;49.306;8.500;2023-01-23T04:16:55;2.44;83.57
9723;DHT22;4900;49.306;8.500;2023-01-23T04:19:58;2.44;83.55
9723;DHT22;4900;49.306;8.500;2023-01-23T04:23:01;2.42;83.55
9723;DHT22;4900;49.306;8.500;2023-01-23T04:26:04;2.44;83.59
9723;DHT22;4900;49.306;8.500;2023-01-23T04:29:07;2.44;83.52
9723;DHT22;4900;49.306;8.500;2023-01-23T04:32:10;2.44;83.62
9723;DHT22;4900;49.306;8.500;2023-01-23T04:35:13;2.42;83.61
9723;DHT22;4900;49.306;8.500;2023-01-23T04:38:16;2.44;83.69
9723;DHT22;4900;49.306;8.500;2023-01-23T04:41:22;2.42;83.71
9723;DHT22;4900;49.306;8.500;2023-01-23T04:44:25;2.40;83.81
9723;DHT22;4900;49.306;8.500;2023-01-23T04:47:29;2.38;83.91
9723;DHT22;4900;49.306;8.500;2023-01-23T04:50:32;2.42;83.85
9723;DHT22;4900;49.306;8.500;2023-01-23T04:53:36;2.44;83.79
9723;DHT22;4900;49.306;8.500;2023-01-23T04:56:39;2.42;83.79
9723;DHT22;4900;49.306;8.500;2023-01-23T04:59:42;2.42;83.81
9723;DHT22;4900;49.306;8.500;2023-01-23T05:02:47;2.42;83.94
9723;DHT22;4900;49.306;8.500;2023-01-23T05:05:51;2.41;84.00
9723;DHT22;4900;49.306;8.500;2023-01-23T05:08:54;2.41;83.98
9723;DHT22;4900;49.306;8.500;2023-01-23T05:11:57;2.37;84.12
9723;DHT22;4900;49.306;8.500;2023-01-23T05:15:00;2.40;84.18
9723;DHT22;4900;49.306;8.500;2023-01-23T05:18:04;2.40;84.10
9723;DHT22;4900;49.306;8.500;2023-01-23T05:21:07;2.38;84.11
9723;DHT22;4900;49.306;8.500;2023-01-23T05:24:10;2.42;84.02
9723;DHT22;4900;49.306;8.500;2023-01-23T05:27:13;2.44;83.96
9723;DHT22;4900;49.306;8.500;2023-01-23T05:30:19;2.45;83.88
9723;DHT22;4900;49.306;8.500;2023-01-23T05:33:22;2.44;83.87
9723;DHT22;4900;49.306;8.500;2023-01-23T05:36:25;2.44;83.86
9723;DHT22;4900;49.306;8.500;2023-01-23T05:39:31;2.48;83.83
9723;DHT22;4900;49.306;8.500;2023-01-23T05:42:34;2.49;83.80
9723;DHT22;4900;49.306;8.500;2023-01-23T05:45:37;2.51;83.75
9723;DHT22;4900;49.306;8.500;2023-01-23T05:48:40;2.48;83.78
9723;DHT22;4900;49.306;8.500;2023-01-23T05:51:43;2.48;83.78
9723;DHT22;4900;49.306;8.500;2023-01-23T05:54:47;2.46;83.82
9723;DHT22;4900;49.306;8.500;2023-01-23T05:57:50;2.49;83.78
9723;DHT22;4900;49.306;8.500;2023-01-23T06:00:53;2.48;83.76
9723;DHT22;4900;49.306;8.500;2023-01-23T06:03:56;2.48;83.70
9723;DHT22;4900;49.306;8.500;2023-01-23T06:06:59;2.48;83.71
9723;DHT22;4900;49.306;8.500;2023-01-23T06:10:04;2.46;83.76
9723;DHT22;4900;49.306;8.500;2023-01-23T06:13:07;2.44;83.83
9723;DHT22;4900;49.306;8.500;2023-01-23T06:16:11;2.42;83.92
9723;DHT22;4900;49.306;8.500;2023-01-23T06:19:13;2.42;83.98
9723;DHT22;4900;49.306;8.500;2023-01-23T06:22:16;2.44;84.06
9723;DHT22;4900;49.306;8.500;2023-01-23T06:25:20;2.41;84.07
9723;DHT22;4900;49.306;8.500;2023-01-23T06:28:24;2.37;84.11
9723;DHT22;4900;49.306;8.500;2023-01-23T06:31:27;2.40;83.95
9723;DHT22;4900;49.306;8.500;2023-01-23T06:34:34;2.40;83.81
9723;DHT22;4900;49.306;8.500;2023-01-23T06:37:38;2.38;83.73
9723;DHT22;4900;49.306;8.500;2023-01-23T06:40:42;2.38;83.63
9723;DHT22;4900;49.306;8.500;2023-01-23T06:43:45;2.32;83.51
9723;DHT22;4900;49.306;8.500;2023-01-23T06:46:48;2.31;83.50
9723;DHT22;4900;49.306;8.500;2023-01-23T06:49:51;2.31;83.43
9723;DHT22;4900;49.306;8.500;2023-01-23T06:52:54;2.27;83.34
9723;DHT22;4900;49.306;8.500;2023-01-23T06:56:03;2.27;83.36
9723;DHT22;4900;49.306;8.500;2023-01-23T06:59:07;2.30;83.25
9723;DHT22;4900;49.306;8.500;2023-01-23T07:02:10;2.22;83.14
9723;DHT22;4900;49.306;8.500;2023-01-23T07:05:14;2.25;83.04
9723;DHT22;4900;49.306;8.500;2023-01-23T07:08:17;2.22;82.97
9723;DHT22;4900;49.306;8.500;2023-01-23T07:11:20;2.22;82.84
9723;DHT22;4900;49.306;8.500;2023-01-23T07:14:23;2.22;82.74
9723;DHT22;4900;49.306;8.500;2023-01-23T07:17:28;2.21;82.67
9723;DHT22;4900;49.306;8.500;2023-01-23T07:20:32;2.20;82.60
9723;DHT22;4900;49.306;8.500;2023-01-23T07:23:35;2.20;82.58
9723;DHT22;4900;49.306;8.500;2023-01-23T07:26:39;2.17;82.64
9723;DHT22;4900;49.306;8.500;2023-01-23T07:29:42;2.18;82.64
9723;DHT22;4900;49.306;8.500;2023-01-23T07:32:46;2.21;82.66
9723;DHT22;4900;49.306;8.500;2023-01-23T07:35:49;2.18;82.73
9723;DHT22;4900;49.306;8.500;2023-01-23T07:38:52;2.22;82.74
9723;DHT22;4900;49.306;8.500;2023-01-23T07:41:56;2.21;82.80
9723;DHT22;4900;49.306;8.500;2023-01-23T07:45:01;2.22;82.85
9723;DHT22;4900;49.306;8.500;2023-01-23T07:48:04;2.24;82.91
9723;DHT22;4900;49.306;8.500;2023-01-23T07:51:07;2.24;83.01
9723;DHT22;4900;49.306;8.500;2023-01-23T07:54:10;2.25;83.01
9723;DHT22;4900;49.306;8.500;2023-01-23T07:57:14;2.27;83.18
9723;DHT22;4900;49.306;8.500;2023-01-23T08:00:17;2.27;83.24
9723;DHT22;4900;49.306;8.500;2023-01-23T08:03:20;2.28;83.31
9723;DHT22;4900;49.306;8.500;2023-01-23T08:06:23;2.30;83.39
9723;DHT22;4900;49.306;8.500;2023-01-23T08:09:26;2.31;83.42
9723;DHT22;4900;49.306;8.500;2023-01-23T08:12:30;2.30;83.42
9723;DHT22;4900;49.306;8.500;2023-01-23T08:15:32;2.32;83.43
9723;DHT22;4900;49.306;8.500;2023-01-23T08:18:36;2.31;83.43
9723;DHT22;4900;49.306;8.500;2023-01-23T08:21:38;2.35;83.57
9723;DHT22;4900;49.306;8.500;2023-01-23T08:24:41;2.37;83.49
9723;DHT22;4900;49.306;8.500;2023-01-23T08:27:45;2.42;83.39
9723;DHT22;4900;49.306;8.500;2023-01-23T08:30:52;2.44;83.39
9723;DHT22;4900;49.306;8.500;2023-01-23T08:33:56;2.45;83.38
9723;DHT22;4900;49.306;8.500;2023-01-23T08:36:59;2.46;83.36
9723;DHT22;4900;49.306;8.500;2023-01-23T08:40:03;2.45;83.45
9723;DHT22;4900;49.306;8.500;2023-01-23T08:43:06;2.48;83.49
9723;DHT22;4900;49.306;8.500;2023-01-23T08:46:10;2.53;83.58
9723;DHT22;4900;49.306;8.500;2023-01-23T08:49:13;2.53;83.59
9723;DHT22;4900;49.306;8.500;2023-01-23T08:52:16;2.56;83.61
9723;DHT22;4900;49.306;8.500;2023-01-23T08:55:19;2.60;83.74
9723;DHT22;4900;49.306;8.500;2023-01-23T08:58:22;2.63;83.82
9723;DHT22;4900;49.306;8.500;2023-01-23T09:01:26;2.66;83.95
9723;DHT22;4900;49.306;8.500;2023-01-23T09:04:29;2.69;83.96
9723;DHT22;4900;49.306;8.500;2023-01-23T09:07:33;2.68;83.93
9723;DHT22;4900;49.306;8.500;2023-01-23T09:10:38;2.73;83.95
9723;DHT22;4900;49.306;8.500;2023-01-23T09:13:42;2.77;84.01
9723;DHT22;4900;49.306;8.500;2023-01-23T09:16:45;2.76;84.07
9723;DHT22;4900;49.306;8.500;2023-01-23T09:19:48;2.75;83.99
9723;DHT22;4900;49.306;8.500;2023-01-23T09:22:51;2.76;83.94
9723;DHT22;4900;49.306;8.500;2023-01-23T09:26:01;2.77;83.83
9723;DHT22;4900;49.306;8.500;2023-01-23T09:29:06;2.76;83.79
9723;DHT22;4900;49.306;8.500;2023-01-23T09:32:09;2.79;83.78
9723;DHT22;4900;49.306;8.500;2023-01-23T09:35:12;2.80;83.76
9723;DHT22;4900;49.306;8.500;2023-01-23T09:38:15;2.80;83.62
9723;DHT22;4900;49.306;8.500;2023-01-23T09:41:19;2.79;83.67
9723;DHT22;4900;49.306;8.500;2023-01-23T09:44:44;2.80;83.61
9723;DHT22;4900;49.306;8.500;2023-01-23T09:51:07;2.83;83.57
9723;DHT22;4900;49.306;8.500;2023-01-23T09:57:30;2.87;83.47
9723;DHT22;4900;49.306;8.500;2023-01-23T10:00:35;2.84;83.36
9723;DHT22;4900;49.306;8.500;2023-01-23T10:03:39;2.86;83.35
9723;DHT22;4900;49.306;8.500;2023-01-23T10:16:59;3.00;83.59
9723;DHT22;4900;49.306;8.500;2023-01-23T10:27:23;3.00;83.61
9723;DHT22;4900;49.306;8.500;2023-01-23T10:30:31;3.05;83.60
9723;DHT22;4900;49.306;8.500;2023-01-23T10:37:18;3.11;83.69
9723;DHT22;4900;49.306;8.500;2023-01-23T10:40:24;3.15;83.61
9723;DHT22;4900;49.306;8.500;2023-01-23T10:43:51;3.16;83.46
9723;DHT22;4900;49.306;8.500;2023-01-23T10:46:59;3.18;83.34
9723;DHT22;4900;49.306;8.500;2023-01-23T10:50:04;3.21;83.10
9723;DHT22;4900;49.306;8.500;2023-01-23T10:53:18;3.24;82.87
9723;DHT22;4900;49.306;8.500;2023-01-23T10:56:22;3.25;82.64
9723;DHT22;4900;49.306;8.500;2023-01-23T10:59:35;3.28;82.52
9723;DHT22;4900;49.306;8.500;2023-01-23T11:02:39;3.28;82.39
9723;DHT22;4900;49.306;8.500;2023-01-23T11:05:43;3.32;82.36
9723;DHT22;4900;49.306;8.500;2023-01-23T11:08:57;3.31;82.29
9723;DHT22;4900;49.306;8.500;2023-01-23T11:12:06;3.33;82.28
9723;DHT22;4900;49.306;8.500;2023-01-23T11:15:25;3.36;82.15
9723;DHT22;4900;49.306;8.500;2023-01-23T11:21:35;3.35;82.08
9723;DHT22;4900;49.306;8.500;2023-01-23T11:24:38;3.33;81.99
9723;DHT22;4900;49.306;8.500;2023-01-23T11:27:58;3.36;81.97
9723;DHT22;4900;49.306;8.500;2023-01-23T11:31:14;3.38;81.82
9723;DHT22;4900;49.306;8.500;2023-01-23T11:34:22;3.36;81.79
9723;DHT22;4900;49.306;8.500;2023-01-23T11:37:31;3.36;81.82
9723;DHT22;4900;49.306;8.500;2023-01-23T11:40:35;3.36;81.68
9723;DHT22;4900;49.306;8.500;2023-01-23T11:43:40;3.38;81.60
9723;DHT22;4900;49.306;8.500;2023-01-23T11:50:14;3.41;81.51
9723;DHT22;4900;49.306;8.500;2023-01-23T12:00:34;3.46;81.42
9723;DHT22;4900;49.306;8.500;2023-01-23T12:04:01;3.42;81.52
9723;DHT22;4900;49.306;8.500;2023-01-23T12:07:20;3.45;81.55
9723;DHT22;4900;49.306;8.500;2023-01-23T12:10:31;3.45;81.55
9723;DHT22;4900;49.306;8.500;2023-01-23T12:20:30;3.46;81.31
9723;DHT22;4900;49.306;8.500;2023-01-23T12:33:54;3.43;81.25
9723;DHT22;4900;49.306;8.500;2023-01-23T12:37:12;3.39;81.06
9723;DHT22;4900;49.306;8.500;2023-01-23T12:40:34;3.38;81.01
9723;DHT22;4900;49.306;8.500;2023-01-23T12:47:07;3.32;81.04
9723;DHT22;4900;49.306;8.500;2023-01-23T12:51:14;3.31;81.29
9723;DHT22;4900;49.306;8.500;2023-01-23T12:53:59;3.29;81.28
9723;DHT22;4900;49.306;8.500;2023-01-23T12:57:03;3.26;81.24
9723;DHT22;4900;49.306;8.500;2023-01-23T13:00:21;3.31;81.38
9723;DHT22;4900;49.306;8.500;2023-01-23T13:07:20;3.39;81.54
9723;DHT22;4900;49.306;8.500;2023-01-23T13:14:21;3.39;81.67
9723;DHT22;4900;49.306;8.500;2023-01-23T13:17:45;3.41;81.74
9723;DHT22;4900;49.306;8.500;2023-01-23T13:20:59;3.39;81.59
9723;DHT22;4900;49.306;8.500;2023-01-23T13:27:56;3.39;81.66
9723;DHT22;4900;49.306;8.500;2023-01-23T13:31:04;3.36;81.57
9723;DHT22;4900;49.306;8.500;2023-01-23T13:40:41;3.29;81.53
9723;DHT22;4900;49.306;8.500;2023-01-23T13:47:23;3.26;81.52
9723;DHT22;4900;49.306;8.500;2023-01-23T13:50:49;3.22;81.56
9723;DHT22;4900;49.306;8.500;2023-01-23T13:53:55;3.21;81.58
9723;DHT22;4900;49.306;8.500;2023-01-23T13:57:17;3.22;81.62
9723;DHT22;4900;49.306;8.500;2023-01-23T14:00:22;3.21;81.57
9723;DHT22;4900;49.306;8.500;2023-01-23T14:03:29;3.19;81.45
9723;DHT22;4900;49.306;8.500;2023-01-23T14:06:55;3.18;81.48
9723;DHT22;4900;49.306;8.500;2023-01-23T14:09:58;3.19;81.46
9723;DHT22;4900;49.306;8.500;2023-01-23T14:13:05;3.19;81.53
9723;DHT22;4900;49.306;8.500;2023-01-23T14:16:12;3.21;81.57
9723;DHT22;4900;49.306;8.500;2023-01-23T14:19:27;3.24;81.65
9723;DHT22;4900;49.306;8.500;2023-01-23T14:22:31;3.18;81.66
9723;DHT22;4900;49.306;8.500;2023-01-23T14:25:36;3.16;81.65
9723;DHT22;4900;49.306;8.500;2023-01-23T14:28:52;3.21;81.78
9723;DHT22;4900;49.306;8.500;2023-01-23T14:31:55;3.21;81.69
9723;DHT22;4900;49.306;8.500;2023-01-23T14:34:59;3.25;81.79
9723;DHT22;4900;49.306;8.500;2023-01-23T14:38:05;3.26;81.77
9723;DHT22;4900;49.306;8.500;2023-01-23T14:41:08;3.24;81.75
9723;DHT22;4900;49.306;8.500;2023-01-23T14:44:21;3.25;81.75
9723;DHT22;4900;49.306;8.500;2023-01-23T14:47:40;3.24;81.65
9723;DHT22;4900;49.306;8.500;2023-01-23T14:50:45;3.24;81.52
9723;DHT22;4900;49.306;8.500;2023-01-23T14:54:00;3.26;81.62
9723;DHT22;4900;49.306;8.500;2023-01-23T14:57:04;3.28;81.47
9723;DHT22;4900;49.306;8.500;2023-01-23T15:00:14;3.26;81.48
9723;DHT22;4900;49.306;8.500;2023-01-23T15:04:21;3.26;81.48
9723;DHT22;4900;49.306;8.500;2023-01-23T15:07:01;3.25;81.38
9723;DHT22;4900;49.306;8.500;2023-01-23T15:10:21;3.22;81.36
9723;DHT22;4900;49.306;8.500;2023-01-23T15:13:51;3.21;81.35
9723;DHT22;4900;49.306;8.500;2023-01-23T15:17:01;3.12;81.42
9723;DHT22;4900;49.306;8.500;2023-01-23T15:20:26;3.09;81.47
9723;DHT22;4900;49.306;8.500;2023-01-23T15:26:35;3.09;81.49
9723;DHT22;4900;49.306;8.500;2023-01-23T15:29:39;3.05;81.56
9723;DHT22;4900;49.306;8.500;2023-01-23T15:32:42;3.05;81.56
9723;DHT22;4900;49.306;8.500;2023-01-23T15:35:46;3.05;81.50
9723;DHT22;4900;49.306;8.500;2023-01-23T15:38:49;3.03;81.63
9723;DHT22;4900;49.306;8.500;2023-01-23T15:42:02;3.04;81.59
9723;DHT22;4900;49.306;8.500;2023-01-23T15:45:12;2.96;81.64
9723;DHT22;4900;49.306;8.500;2023-01-23T15:48:16;2.96;81.60
9723;DHT22;4900;49.306;8.500;2023-01-23T15:51:19;2.96;81.54
9723;DHT22;4900;49.306;8.500;2023-01-23T15:54:30;2.88;81.59
9723;DHT22;4900;49.306;8.500;2023-01-23T15:57:34;2.86;81.54
9723;DHT22;4900;49.306;8.500;2023-01-23T16:00:37;2.84;81.52
9723;DHT22;4900;49.306;8.500;2023-01-23T16:03:40;2.84;81.48
9723;DHT22;4900;49.306;8.500;2023-01-23T16:06:43;2.80;81.70
9723;DHT22;4900;49.306;8.500;2023-01-23T16:09:47;2.83;81.54
9723;DHT22;4900;49.306;8.500;2023-01-23T16:12:54;2.75;81.68
9723;DHT22;4900;49.306;8.500;2023-01-23T16:15:58;2.72;81.83
9723;DHT22;4900;49.306;8.500;2023-01-23T16:19:02;2.72;81.85
9723;DHT22;4900;49.306;8.500;2023-01-23T16:22:05;2.68;81.89
9723;DHT22;4900;49.306;8.500;2023-01-23T16:25:24;2.68;82.09
9723;DHT22;4900;49.306;8.500;2023-01-23T16:28:28;2.70;81.87
9723;DHT22;4900;49.306;8.500;2023-01-23T16:31:32;2.66;82.04
9723;DHT22;4900;49.306;8.500;2023-01-23T16:34:35;2.70;82.04
9723;DHT22;4900;49.306;8.500;2023-01-23T16:37:39;2.69;82.13
9723;DHT22;4900;49.306;8.500;2023-01-23T16:40:43;2.66;82.17
9723;DHT22;4900;49.306;8.500;2023-01-23T16:43:46;2.65;82.28
9723;DHT22;4900;49.306;8.500;2023-01-23T16:46:51;2.63;82.35
9723;DHT22;4900;49.306;8.500;2023-01-23T16:49:54;2.63;82.40
9723;DHT22;4900;49.306;8.500;2023-01-23T16:53:26;2.63;82.32
9723;DHT22;4900;49.306;8.500;2023-01-23T16:56:36;2.65;82.25
9723;DHT22;4900;49.306;8.500;2023-01-23T16:59:40;2.68;82.21
9723;DHT22;4900;49.306;8.500;2023-01-23T17:02:47;2.63;82.26
9723;DHT22;4900;49.306;8.500;2023-01-23T17:05:51;2.62;82.24
9723;DHT22;4900;49.306;8.500;2023-01-23T17:08:54;2.65;82.16
9723;DHT22;4900;49.306;8.500;2023-01-23T17:11:58;2.66;82.09
9723;DHT22;4900;49.306;8.500;2023-01-23T17:15:02;2.68;81.95
9723;DHT22;4900;49.306;8.500;2023-01-23T17:18:08;2.70;81.94
9723;DHT22;4900;49.306;8.500;2023-01-23T17:21:20;2.72;81.76
9723;DHT22;4900;49.306;8.500;2023-01-23T17:24:25;2.72;81.61
9723;DHT22;4900;49.306;8.500;2023-01-23T17:27:29;2.73;81.58
9723;DHT22;4900;49.306;8.500;2023-01-23T17:30:32;2.73;81.48
9723;DHT22;4900;49.306;8.500;2023-01-23T17:33:36;2.72;81.37
9723;DHT22;4900;49.306;8.500;2023-01-23T17:36:39;2.72;81.23
9723;DHT22;4900;49.306;8.500;2023-01-23T17:39:42;2.68;81.16
9723;DHT22;4900;49.306;8.500;2023-01-23T17:42:45;2.65;81.12
9723;DHT22;4900;49.306;8.500;2023-01-23T17:45:49;2.62;81.08
9723;DHT22;4900;49.306;8.500;2023-01-23T17:48:54;2.59;81.10
9723;DHT22;4900;49.306;8.500;2023-01-23T17:51:59;2.60;81.11
9723;DHT22;4900;49.306;8.500;2023-01-23T17:55:03;2.58;81.21
9723;DHT22;4900;49.306;8.500;2023-01-23T17:58:08;2.56;81.24
9723;DHT22;4900;49.306;8.500;2023-01-23T18:01:21;2.52;81.21
9723;DHT22;4900;49.306;8.500;2023-01-23T18:04:25;2.51;81.16
9723;DHT22;4900;49.306;8.500;2023-01-23T18:07:28;2.51;81.15
9723;DHT22;4900;49.306;8.500;2023-01-23T18:10:32;2.49;81.12
9723;DHT22;4900;49.306;8.500;2023-01-23T18:13:42;2.51;81.17
9723;DHT22;4900;49.306;8.500;2023-01-23T18:16:48;2.49;81.11
9723;DHT22;4900;49.306;8.500;2023-01-23T18:19:52;2.45;81.14
9723;DHT22;4900;49.306;8.500;2023-01-23T18:22:56;2.46;81.26
9723;DHT22;4900;49.306;8.500;2023-01-23T18:32:42;2.44;81.56
9723;DHT22;4900;49.306;8.500;2023-01-23T18:39:58;2.44;81.84
9723;DHT22;4900;49.306;8.500;2023-01-23T18:43:29;2.46;81.89
9723;DHT22;4900;49.306;8.500;2023-01-23T18:46:35;2.42;82.01
9723;DHT22;4900;49.306;8.500;2023-01-23T18:49:38;2.46;82.11
9723;DHT22;4900;49.306;8.500;2023-01-23T18:56:16;2.48;82.43
9723;DHT22;4900;49.306;8.500;2023-01-23T19:03:15;2.46;82.68
9723;DHT22;4900;49.306;8.500;2023-01-23T19:06:22;2.51;82.64
9723;DHT22;4900;49.306;8.500;2023-01-23T19:09:26;2.52;82.66
9723;DHT22;4900;49.306;8.500;2023-01-23T19:12:35;2.51;82.94
9723;DHT22;4900;49.306;8.500;2023-01-23T19:18:46;2.56;83.10
9723;DHT22;4900;49.306;8.500;2023-01-23T19:21:50;2.58;83.12
9723;DHT22;4900;49.306;8.500;2023-01-23T19:24:53;2.58;82.98
9723;DHT22;4900;49.306;8.500;2023-01-23T19:27:58;2.59;83.17
9723;DHT22;4900;49.306;8.500;2023-01-23T19:31:02;2.62;83.20
9723;DHT22;4900;49.306;8.500;2023-01-23T19:34:06;2.62;83.30
9723;DHT22;4900;49.306;8.500;2023-01-23T19:37:09;2.59;83.47
9723;DHT22;4900;49.306;8.500;2023-01-23T19:40:14;2.60;83.43
9723;DHT22;4900;49.306;8.500;2023-01-23T19:43:17;2.63;83.52
9723;DHT22;4900;49.306;8.500;2023-01-23T19:46:24;2.60;83.52
9723;DHT22;4900;49.306;8.500;2023-01-23T19:49:28;2.60;83.44
9723;DHT22;4900;49.306;8.500;2023-01-23T19:52:32;2.65;83.35
9723;DHT22;4900;49.306;8.500;2023-01-23T19:55:35;2.63;83.29
9723;DHT22;4900;49.306;8.500;2023-01-23T19:58:41;2.66;83.12
9723;DHT22;4900;49.306;8.500;2023-01-23T20:01:46;2.68;83.05
9723;DHT22;4900;49.306;8.500;2023-01-23T20:04:51;2.68;83.10
9723;DHT22;4900;49.306;8.500;2023-01-23T20:07:53;2.68;83.09
9723;DHT22;4900;49.306;8.500;2023-01-23T20:10:57;2.70;83.07
9723;DHT22;4900;49.306;8.500;2023-01-23T20:14:00;2.73;83.01
9723;DHT22;4900;49.306;8.500;2023-01-23T20:17:03;2.70;83.00
9723;DHT22;4900;49.306;8.500;2023-01-23T20:20:08;2.72;83.01
9723;DHT22;4900;49.306;8.500;2023-01-23T20:23:13;2.72;82.95
9723;DHT22;4900;49.306;8.500;2023-01-23T20:26:18;2.73;82.97
9723;DHT22;4900;49.306;8.500;2023-01-23T20:29:21;2.73;83.04
9723;DHT22;4900;49.306;8.500;2023-01-23T20:32:25;2.73;83.03
9723;DHT22;4900;49.306;8.500;2023-01-23T20:35:29;2.73;82.95
9723;DHT22;4900;49.306;8.500;2023-01-23T20:38:33;2.76;82.94
9723;DHT22;4900;49.306;8.500;2023-01-23T20:41:36;2.75;82.96
9723;DHT22;4900;49.306;8.500;2023-01-23T20:44:40;2.79;82.89
9723;DHT22;4900;49.306;8.500;2023-01-23T20:47:43;2.79;82.87
9723;DHT22;4900;49.306;8.500;2023-01-23T20:50:54;2.79;82.87
9723;DHT22;4900;49.306;8.500;2023-01-23T20:53:58;2.83;82.70
9723;DHT22;4900;49.306;8.500;2023-01-23T20:57:02;2.80;82.75
9723;DHT22;4900;49.306;8.500;2023-01-23T21:00:05;2.80;82.71
9723;DHT22;4900;49.306;8.500;2023-01-23T21:03:08;2.80;82.70
9723;DHT22;4900;49.306;8.500;2023-01-23T21:06:13;2.81;82.60
9723;DHT22;4900;49.306;8.500;2023-01-23T21:09:16;2.80;82.56
9723;DHT22;4900;49.306;8.500;2023-01-23T21:12:20;2.83;82.47
9723;DHT22;4900;49.306;8.500;2023-01-23T21:15:23;2.86;82.39
9723;DHT22;4900;49.306;8.500;2023-01-23T21:18:26;2.83;82.40
9723;DHT22;4900;49.306;8.500;2023-01-23T21:21:29;2.86;82.41
9723;DHT22;4900;49.306;8.500;2023-01-23T21:24:33;2.81;82.32
9723;DHT22;4900;49.306;8.500;2023-01-23T21:27:37;2.83;82.40
9723;DHT22;4900;49.306;8.500;2023-01-23T21:30:40;2.87;82.40
9723;DHT22;4900;49.306;8.500;2023-01-23T21:33:44;2.87;82.30
9723;DHT22;4900;49.306;8.500;2023-01-23T21:36:48;2.84;82.34
9723;DHT22;4900;49.306;8.500;2023-01-23T21:39:51;2.84;82.42
9723;DHT22;4900;49.306;8.500;2023-01-23T21:42:55;2.83;82.52
9723;DHT22;4900;49.306;8.500;2023-01-23T21:45:58;2.80;82.64
9723;DHT22;4900;49.306;8.500;2023-01-23T21:49:02;2.81;82.70
9723;DHT22;4900;49.306;8.500;2023-01-23T21:52:05;2.83;82.57
9723;DHT22;4900;49.306;8.500;2023-01-23T21:55:08;2.83;82.56
9723;DHT22;4900;49.306;8.500;2023-01-23T21:58:11;2.84;82.57
9723;DHT22;4900;49.306;8.500;2023-01-23T22:01:20;2.83;82.61
9723;DHT22;4900;49.306;8.500;2023-01-23T22:04:39;2.86;82.49
9723;DHT22;4900;49.306;8.500;2023-01-23T22:07:42;2.84;82.51
9723;DHT22;4900;49.306;8.500;2023-01-23T22:10:45;2.86;82.47
9723;DHT22;4900;49.306;8.500;2023-01-23T22:13:48;2.88;82.44
9723;DHT22;4900;49.306;8.500;2023-01-23T22:16:51;2.88;82.39
9723;DHT22;4900;49.306;8.500;2023-01-23T22:19:54;2.86;82.40
9723;DHT22;4900;49.306;8.500;2023-01-23T22:22:57;2.87;82.36